KNQI/NQI METAR and TAF weather

Enter ICAO airport designator
Station Type Date Time Source
KNQI METAR 2020/07/04 09:56 UTC NOAA

KNQI 040956Z AUTO 18004KT 9SM CLR 24/23 A2992 RMK AO2 SLP128 T02440233 $


Station Type Date Time Source
KNQI Decoded METAR 2020/07/04 09:56 UTC NOAA

KINGSVILLE NAS, TX, United States (KNQI) 27-50N 097-81W 15M
Jul 04, 2020 - 05:56 AM EDT / 2020.07.04 0956 UTC
Wind: from the S (180 degrees) at 5 MPH (4 KT):0
Visibility: 9 mile(s):0
Sky conditions: clear
Temperature: 75.9 F (24.4 C)
Dew Point: 73.9 F (23.3 C)
Relative Humidity: 93%
Pressure (altimeter): 29.92 in. Hg (1013 hPa)
ob: KNQI 040956Z AUTO 18004KT 9SM CLR 24/23 A2992 RMK AO2 SLP128 T02440233
cycle: 10

Station Type Date Time Source
KNQI TAF 2020/07/03 23:59 UTC NOAA

TAF COR KNQI 0223/0323 13015G21KT 9999 SCT040 BKN250 QNH2988INS
FM030200 16010KT 9999 SCT020 BKN035 QNH2988INS
TEMPO 0302/0308 9000 BR BKN020 BKN035
FM030800 16007KT 8000 BR SCT015 BKN032 QNH2990INS
TEMPO 0308/0314 4800 BR BKN015 BKN025
FM031500 16010KT 9000 HZ SCT025 BKN250 QNH2995INS
FM031800 13012G20KT 9999 FEW035 BKN250 QNH2987INS LAST NO
AMDS AFT 0305 NEXT 0515 T25/0312Z T36/0320Z COR 0140 FN20067

Example: see airport list